Grand Coulee, WA

11:05 AM PDT on October 20, 2014 (GMT -0700)
3 miles ESE of Grand Coulee Dam, in Lincoln County, WA | Change Station
CLOSE
Current Station
Personal Weather Station
Location: Grand Coulee, WA
Elevation: 480 m
Nearby Weather Stations

Elev 480 m 47.92 °N, 118.94 °W | Updated 5 minutes ago

Partly Cloudy
Partly Cloudy
14.3 °C
Feels Like 14.3 °C
N
6.4
Wind Variable Wind from NNE
Gusts 6.4 km/h

Today
High -- | Low -- °C
--% Chance of Precip.
Yesterday
High -- | Low -- °C
Precip. -- mm
7:22 AM 5:57 PM
Waning Crescent, 10% visible
Pressure 1007 hPa
Visibility 16.1 kilometers
Clouds Mostly Cloudy 2895 m
Overcast 3657 m
Dew Point 9 °C
Humidity 69%
Rainfall 0 mm
Snow Depth Not available.
UV 1 out of 12
Pollen 2.90 out of 12
Air Quality Not available.
Flu Activity Sporadic
METAR KOMK 201753Z AUTO 19005KT 10SM BKN095 OVC120 12/09 A2974 RMK AO2 RAB39E50 SLP073 P0000 60000 T01170089 10117 20056 50007

More Conditions Fewer Conditions

Pressure 1007 hPa
Visibility 16.1 kilometers
Clouds Mostly Cloudy 2895 m
Overcast 3657 m
Dew Point 9 °C
Humidity 69%
Rainfall 0 mm
Snow Depth Not available.
UV 1 out of 12
Pollen 2.90 out of 12
Air Quality Not available.
Flu Activity Sporadic
METAR KOMK 201753Z AUTO 19005KT 10SM BKN095 OVC120 12/09 A2974 RMK AO2 RAB39E50 SLP073 P0000 60000 T01170089 10117 20056 50007

More Conditions Fewer Conditions

10-Day Weather Forecast

Almanac

Astronomy

Oct. 20, 2014 Rise Set
Actual Time 7:22 AM PDT 5:57 PM PDT
Civil Twilight 6:51 AM PDT 6:29 PM PDT
Nautical Twilight 6:15 AM PDT 7:05 PM PDT
Astronomical Twilight 5:39 AM PDT 7:41 PM PDT
Moon 4:02 AM PDT 4:34 PM PDT
Length of Visible Light 11h 38m
Length of Day
10h 35m
Waning Crescent, 10% of the Moon is Illuminated
Today
Waning Crescent
Oct 23
New
Oct 30
First Quarter
Nov 6
Full
Nov 14
Last Quarter

Today's Extremes

State Highs State Lows

Community

WunderPhotos

Upload Photos

1,763,455 photos uploaded!

Nearby

Snow Depth

Station Depth Elevation
Moses Mountain 0 in 5300 ft
Sentinel Butte 0 in 4920 ft
Pope Ridge 0 in 3540 ft
Trough 0 in 5300 ft
Grouse Camp 0 in 5380 ft

Earthquake Activity

City Distance Mag. Time & Date
No recent earthquake activity has been reported nearby.
Minimum magnitude displayed is 2.5.

Coastal Water Temperatures

Place Temperature
No Stations Reporting

Nearby Weather Stations